Main page
METAR-TAF:

METAR-TAF

Airports :

Mikkeli Airport

Mikkeli, Finland

latitude: 61-44N, longitude: 027-18E, elevation: 138 m

Current weather observation

The report was made 45 minutes ago, at 16:20 UTC
Wind 5 kt from the West/Southwest, varying between South/Southwest and West/Northwest
Temperature 19°C
Humidity 37%
Pressure 1014 hPa
Visibility 10 km or more
no clouds below 1500 m and no cumulonimbus

METAR: EFMI 151620Z AUTO 25005KT 200V290 CAVOK 19/04 Q1014

Time: 20:05 (17:05 UTC)


TAF: missing

Weather observations and forecasts of more than 4000 airports (METAR and TAF reports).

The available stations are represented by yellow and red dots on the map.

Hover mouse over dot to see the name of the station.

Then click to see weather observations and forecasts.

To change the map : click on the green buttons with a black cross to zoom in, on the green button with a dash to zoom out, or on the green arrows for adjacent maps.


METAR-TAF: